<?xml version="1.0"?>
<gpx xmlns="http://www.topografix.com/GPX/1/1" xmlns:xsi="http://www.w3.org/2001/XMLSchema-instance" xmlns:wptx1="http://www.garmin.com/xmlschemas/WaypointExtension/v1" xmlns:gpxtrx="http://www.garmin.com/xmlschemas/GpxExtensions/v3" xmlns:gpxtpx="http://www.garmin.com/xmlschemas/TrackPointExtension/v1" xmlns:gpxx="http://www.garmin.com/xmlschemas/GpxExtensions/v3" xmlns:trp="http://www.garmin.com/xmlschemas/TripExtensions/v1" xmlns:adv="http://www.garmin.com/xmlschemas/AdventuresExtensions/v1" xmlns:prs="http://www.garmin.com/xmlschemas/PressureExtension/v1" xmlns:tmd="http://www.garmin.com/xmlschemas/TripMetaDataExtensions/v1" xmlns:vptm="http://www.garmin.com/xmlschemas/ViaPointTransportationModeExtensions/v1" xmlns:ctx="http://www.garmin.com/xmlschemas/CreationTimeExtension/v1" xmlns:gpxacc="http://www.garmin.com/xmlschemas/AccelerationExtension/v1" xmlns:gpxpx="http://www.garmin.com/xmlschemas/PowerExtension/v1" xmlns:vidx1="http://www.garmin.com/xmlschemas/VideoExtension/v1" creator="Garmin Desktop App" version="1.1" xsi:schemaLocation="http://www.topografix.com/GPX/1/1 http://www.topografix.com/GPX/1/1/gpx.xsd http://www.garmin.com/xmlschemas/WaypointExtension/v1 http://www8.garmin.com/xmlschemas/WaypointExtensionv1.xsd http://www.garmin.com/xmlschemas/TrackPointExtension/v1 http://www.garmin.com/xmlschemas/TrackPointExtensionv1.xsd http://www.garmin.com/xmlschemas/GpxExtensions/v3 http://www8.garmin.com/xmlschemas/GpxExtensionsv3.xsd http://www.garmin.com/xmlschemas/ActivityExtension/v1 http://www8.garmin.com/xmlschemas/ActivityExtensionv1.xsd http://www.garmin.com/xmlschemas/AdventuresExtensions/v1 http://www8.garmin.com/xmlschemas/AdventuresExtensionv1.xsd http://www.garmin.com/xmlschemas/PressureExtension/v1 http://www.garmin.com/xmlschemas/PressureExtensionv1.xsd http://www.garmin.com/xmlschemas/TripExtensions/v1 http://www.garmin.com/xmlschemas/TripExtensionsv1.xsd http://www.garmin.com/xmlschemas/TripMetaDataExtensions/v1 http://www.garmin.com/xmlschemas/TripMetaDataExtensionsv1.xsd http://www.garmin.com/xmlschemas/ViaPointTransportationModeExtensions/v1 http://www.garmin.com/xmlschemas/ViaPointTransportationModeExtensionsv1.xsd http://www.garmin.com/xmlschemas/CreationTimeExtension/v1 http://www.garmin.com/xmlschemas/CreationTimeExtensionsv1.xsd http://www.garmin.com/xmlschemas/AccelerationExtension/v1 http://www.garmin.com/xmlschemas/AccelerationExtensionv1.xsd http://www.garmin.com/xmlschemas/PowerExtension/v1 http://www.garmin.com/xmlschemas/PowerExtensionv1.xsd http://www.garmin.com/xmlschemas/VideoExtension/v1 http://www.garmin.com/xmlschemas/VideoExtensionv1.xsd">

  <metadata>
    <link href="http://www.garmin.com">
      <text>Garmin International</text>
    </link>
    <time>2018-02-27T04:01:44Z</time>
    <bounds maxlat="13.026583017781377" maxlon="101.48043435998261" minlat="12.949522482231259" minlon="101.418046429753304"/>
  </metadata>

  <wpt lat="13.023734595626593" lon="101.424202853813767">
    <ele>82</ele>
    <name>Wang Chan Resort</name>
    <cmt>24-SEP-11 12:03:42</cmt>
    <desc>24-SEP-11 12:03:42</desc>
    <sym>Lodging</sym>
    <type>user</type>
    <extensions>
      <gpxx:WaypointExtension>
        <gpxx:DisplayMode>SymbolAndName</gpxx:DisplayMode>
      </gpxx:WaypointExtension>
      <wptx1:WaypointExtension>
        <wptx1:DisplayMode>SymbolAndName</wptx1:DisplayMode>
      </wptx1:WaypointExtension>
    </extensions>
  </wpt>

  <wpt lat="12.949555171653628" lon="101.447993544861674">
    <ele>74</ele>
    <name>Water Sat</name>
    <cmt>24-NOV-12 15:03:47</cmt>
    <desc>24-NOV-12 15:03:47</desc>
    <sym>Drinking Water</sym>
    <type>user</type>
    <extensions>
      <gpxx:WaypointExtension>
        <gpxx:DisplayMode>SymbolOnly</gpxx:DisplayMode>
      </gpxx:WaypointExtension>
      <wptx1:WaypointExtension>
        <wptx1:DisplayMode>SymbolOnly</wptx1:DisplayMode>
      </wptx1:WaypointExtension>
    </extensions>
  </wpt>

  <trk>
    <name>Hillclimb</name>
    <extensions>
      <gpxx:TrackExtension>
        <gpxx:DisplayColor>DarkRed</gpxx:DisplayColor>
      </gpxx:TrackExtension>
    </extensions>
    <trkseg>
      <trkpt lat="12.949797073379159" lon="101.447276556864381">
        <ele>81.849999999999994</ele>
        <time>2012-11-24T07:52:59Z</time>
      </trkpt>
      <trkpt lat="12.950332844629884" lon="101.446557557210326">
        <ele>84.730000000000004</ele>
        <time>2012-11-24T07:53:22Z</time>
      </trkpt>
      <trkpt lat="12.952566454187036" lon="101.445012772455812">
        <ele>87.140000000000001</ele>
        <time>2012-11-24T07:54:06Z</time>
      </trkpt>
      <trkpt lat="12.9537960793823" lon="101.444648075848818">
        <ele>86.180000000000007</ele>
        <time>2012-11-24T07:54:26Z</time>
      </trkpt>
      <trkpt lat="12.954706940799952" lon="101.443133298307657">
        <ele>87.620000000000005</ele>
        <time>2012-11-24T07:54:55Z</time>
      </trkpt>
      <trkpt lat="12.955195186659694" lon="101.442555701360106">
        <ele>89.540000000000006</ele>
        <time>2012-11-24T07:55:09Z</time>
      </trkpt>
      <trkpt lat="12.957766000181437" lon="101.440283618867397">
        <ele>94.349999999999994</ele>
        <time>2012-11-24T07:56:14Z</time>
      </trkpt>
      <trkpt lat="12.959594177082181" lon="101.439212244004011">
        <ele>98.670000000000002</ele>
        <time>2012-11-24T07:57:15Z</time>
      </trkpt>
      <trkpt lat="12.960339663550258" lon="101.438568849116564">
        <ele>102.040000000000006</ele>
        <time>2012-11-24T07:57:47Z</time>
      </trkpt>
      <trkpt lat="12.961304588243365" lon="101.437743315473199">
        <ele>100.109999999999999</ele>
        <time>2012-11-24T07:58:24Z</time>
      </trkpt>
      <trkpt lat="12.962381495162845" lon="101.437090784311295">
        <ele>103</ele>
        <time>2012-11-24T07:58:49Z</time>
      </trkpt>
      <trkpt lat="12.962498171254992" lon="101.435837689787149">
        <ele>107.810000000000002</ele>
        <time>2012-11-24T07:59:25Z</time>
      </trkpt>
      <trkpt lat="12.96260898001492" lon="101.43505884334445">
        <ele>108.290000000000006</ele>
        <time>2012-11-24T07:59:58Z</time>
      </trkpt>
      <trkpt lat="12.963165789842606" lon="101.433782111853361">
        <ele>115.980000000000004</ele>
        <time>2012-11-24T08:01:01Z</time>
      </trkpt>
      <trkpt lat="12.963491594418883" lon="101.43358270637691">
        <ele>115.010000000000005</ele>
        <time>2012-11-24T08:01:19Z</time>
      </trkpt>
      <trkpt lat="12.963929213583469" lon="101.433089766651392">
        <ele>124.150000000000006</ele>
        <time>2012-11-24T08:02:06Z</time>
      </trkpt>
      <trkpt lat="12.96434604562819" lon="101.432904442772269">
        <ele>129.430000000000007</ele>
        <time>2012-11-24T08:02:39Z</time>
      </trkpt>
      <trkpt lat="12.964577218517661" lon="101.432540416717529">
        <ele>134.240000000000009</ele>
        <time>2012-11-24T08:03:11Z</time>
      </trkpt>
      <trkpt lat="12.965436363592744" lon="101.431837845593691">
        <ele>149.620000000000005</ele>
        <time>2012-11-24T08:05:03Z</time>
      </trkpt>
      <trkpt lat="12.965525379404426" lon="101.431577084586024">
        <ele>152.990000000000009</ele>
        <time>2012-11-24T08:05:37Z</time>
      </trkpt>
      <trkpt lat="12.965968111529946" lon="101.431072745472193">
        <ele>154.909999999999997</ele>
        <time>2012-11-24T08:06:49Z</time>
      </trkpt>
      <trkpt lat="12.966628186404705" lon="101.430710982531309">
        <ele>156.349999999999994</ele>
        <time>2012-11-24T08:07:07Z</time>
      </trkpt>
      <trkpt lat="12.967690257355571" lon="101.429661819711328">
        <ele>163.080000000000013</ele>
        <time>2012-11-24T08:07:55Z</time>
      </trkpt>
      <trkpt lat="12.96826190315187" lon="101.429287819191813">
        <ele>170.289999999999992</ele>
        <time>2012-11-24T08:08:37Z</time>
      </trkpt>
      <trkpt lat="12.968532387167215" lon="101.429089084267616">
        <ele>172.210000000000008</ele>
        <time>2012-11-24T08:09:01Z</time>
      </trkpt>
      <trkpt lat="12.968877386301756" lon="101.428545182570815">
        <ele>177.5</ele>
        <time>2012-11-24T08:09:44Z</time>
      </trkpt>
      <trkpt lat="12.969000767916441" lon="101.428345777094364">
        <ele>178.460000000000008</ele>
        <time>2012-11-24T08:09:57Z</time>
      </trkpt>
      <trkpt lat="12.970403982326388" lon="101.427226876839995">
        <ele>180.870000000000005</ele>
        <time>2012-11-24T08:10:57Z</time>
      </trkpt>
      <trkpt lat="12.970913350582123" lon="101.426414251327515">
        <ele>187.590000000000003</ele>
        <time>2012-11-24T08:11:53Z</time>
      </trkpt>
      <trkpt lat="12.971256086602807" lon="101.425474472343922">
        <ele>189.52000000000001</ele>
        <time>2012-11-24T08:12:42Z</time>
      </trkpt>
      <trkpt lat="12.971674259752035" lon="101.424986058846116">
        <ele>196.25</ele>
        <time>2012-11-24T08:13:47Z</time>
      </trkpt>
      <trkpt lat="12.97232486307621" lon="101.424787407740951">
        <ele>202.97999999999999</ele>
        <time>2012-11-24T08:14:31Z</time>
      </trkpt>
      <trkpt lat="12.9725740570575" lon="101.424802578985691">
        <ele>202.97999999999999</ele>
        <time>2012-11-24T08:14:47Z</time>
      </trkpt>
      <trkpt lat="12.973168920725584" lon="101.424405025318265">
        <ele>208.259999999999991</ele>
        <time>2012-11-24T08:15:24Z</time>
      </trkpt>
      <trkpt lat="12.973446696996689" lon="101.424039658159018">
        <ele>215.949999999999989</ele>
        <time>2012-11-24T08:16:28Z</time>
      </trkpt>
      <trkpt lat="12.973446696996689" lon="101.424039658159018">
        <ele>217.879999999999995</ele>
        <time>2012-11-24T08:16:41Z</time>
      </trkpt>
      <trkpt lat="12.973472597077489" lon="101.424032198265195">
        <ele>219.800000000000011</ele>
        <time>2012-11-24T08:16:52Z</time>
      </trkpt>
      <trkpt lat="12.973642582073808" lon="101.423991043120623">
        <ele>220.280000000000001</ele>
        <time>2012-11-24T08:17:03Z</time>
      </trkpt>
      <trkpt lat="12.973811309784651" lon="101.423916863277555">
        <ele>224.120000000000005</ele>
        <time>2012-11-24T08:17:30Z</time>
      </trkpt>
      <trkpt lat="12.973812231794" lon="101.423920635133982">
        <ele>226.050000000000011</ele>
        <time>2012-11-24T08:17:42Z</time>
      </trkpt>
      <trkpt lat="12.973920693621039" lon="101.423898003995419">
        <ele>228.449999999999989</ele>
        <time>2012-11-24T08:17:55Z</time>
      </trkpt>
      <trkpt lat="12.974338447675109" lon="101.423010360449553">
        <ele>236.620000000000005</ele>
        <time>2012-11-24T08:20:04Z</time>
      </trkpt>
      <trkpt lat="12.974721416831017" lon="101.422568382695317">
        <ele>246.719999999999999</ele>
        <time>2012-11-24T08:20:48Z</time>
      </trkpt>
      <trkpt lat="12.974897939711809" lon="101.422426728531718">
        <ele>249.599999999999994</ele>
        <time>2012-11-24T08:21:12Z</time>
      </trkpt>
      <trkpt lat="12.975537562742829" lon="101.421932196244597">
        <ele>255.849999999999994</ele>
        <time>2012-11-24T08:22:09Z</time>
      </trkpt>
      <trkpt lat="12.975773680955172" lon="101.421181932091713">
        <ele>255.370000000000005</ele>
        <time>2012-11-24T08:22:40Z</time>
      </trkpt>
      <trkpt lat="12.976203337311745" lon="101.420833999291062">
        <ele>253.439999999999998</ele>
        <time>2012-11-24T08:22:54Z</time>
      </trkpt>
      <trkpt lat="12.976710107177496" lon="101.419968483969569">
        <ele>261.139999999999986</ele>
        <time>2012-11-24T08:23:31Z</time>
      </trkpt>
      <trkpt lat="12.977099362760782" lon="101.419824063777924">
        <ele>263.060000000000002</ele>
        <time>2012-11-24T08:23:52Z</time>
      </trkpt>
      <trkpt lat="12.977384515106678" lon="101.419908637180924">
        <ele>263.060000000000002</ele>
        <time>2012-11-24T08:24:06Z</time>
      </trkpt>
      <trkpt lat="12.977586686611176" lon="101.419780226424336">
        <ele>259.689999999999998</ele>
        <time>2012-11-24T08:24:12Z</time>
      </trkpt>
      <trkpt lat="12.977571096271276" lon="101.41928150318563">
        <ele>258.730000000000018</ele>
        <time>2012-11-24T08:24:25Z</time>
      </trkpt>
      <trkpt lat="12.977303126826882" lon="101.418740954250097">
        <ele>265.939999999999998</ele>
        <time>2012-11-24T08:24:58Z</time>
      </trkpt>
      <trkpt lat="12.977555422112346" lon="101.418478013947606">
        <ele>270.269999999999982</ele>
        <time>2012-11-24T08:25:25Z</time>
      </trkpt>
      <trkpt lat="12.977911317721009" lon="101.418361170217395">
        <ele>272.189999999999998</ele>
        <time>2012-11-24T08:25:53Z</time>
      </trkpt>
      <trkpt lat="12.978053390979767" lon="101.418367456644773">
        <ele>270.269999999999982</ele>
        <time>2012-11-24T08:25:59Z</time>
      </trkpt>
      <trkpt lat="12.978453543037176" lon="101.418046429753304">
        <ele>271.70999999999998</ele>
        <time>2012-11-24T08:29:53Z</time>
      </trkpt>
      <trkpt lat="12.977855494245887" lon="101.418500309810042">
        <ele>276.04000000000002</ele>
        <time>2012-11-24T08:30:39Z</time>
      </trkpt>
      <trkpt lat="12.978266123682261" lon="101.418917141854763">
        <ele>290.45999999999998</ele>
        <time>2012-11-24T08:32:05Z</time>
      </trkpt>
      <trkpt lat="12.97860668040812" lon="101.418869700282812">
        <ele>302.949999999999989</ele>
        <time>2012-11-24T08:34:15Z</time>
      </trkpt>
      <trkpt lat="12.979037007316947" lon="101.419091066345572">
        <ele>312.089999999999975</ele>
        <time>2012-11-24T08:35:33Z</time>
      </trkpt>
      <trkpt lat="12.978942459449172" lon="101.419381164014339">
        <ele>320.740000000000009</ele>
        <time>2012-11-24T08:36:53Z</time>
      </trkpt>
      <trkpt lat="12.978960396721959" lon="101.419826745986938">
        <ele>332.269999999999982</ele>
        <time>2012-11-24T08:38:25Z</time>
      </trkpt>
      <trkpt lat="12.979588033631444" lon="101.420252714306116">
        <ele>343.810000000000002</ele>
        <time>2012-11-24T08:42:25Z</time>
      </trkpt>
      <trkpt lat="12.980214832350612" lon="101.420845733955503">
        <ele>351.019999999999982</ele>
        <time>2012-11-24T08:43:37Z</time>
      </trkpt>
      <trkpt lat="12.979658357799053" lon="101.421346971765161">
        <ele>342.850000000000023</ele>
        <time>2012-11-24T08:44:39Z</time>
      </trkpt>
      <trkpt lat="12.979087717831135" lon="101.422111988067627">
        <ele>354.379999999999995</ele>
        <time>2012-11-24T08:46:35Z</time>
      </trkpt>
      <trkpt lat="12.979366416111588" lon="101.423141537234187">
        <ele>375.529999999999973</ele>
        <time>2012-11-24T08:50:14Z</time>
      </trkpt>
      <trkpt lat="12.979088723659515" lon="101.423377739265561">
        <ele>383.220000000000027</ele>
        <time>2012-11-24T08:51:17Z</time>
      </trkpt>
      <trkpt lat="12.978943968191743" lon="101.423415709286928">
        <ele>383.220000000000027</ele>
        <time>2012-11-24T08:56:09Z</time>
      </trkpt>
      <trkpt lat="12.978703575208783" lon="101.423947121948004">
        <ele>389.470000000000027</ele>
        <time>2012-11-24T08:57:05Z</time>
      </trkpt>
      <trkpt lat="12.978743556886911" lon="101.424461686983705">
        <ele>396.199999999999989</ele>
        <time>2012-11-24T08:58:05Z</time>
      </trkpt>
      <trkpt lat="12.977886339649558" lon="101.425621323287487">
        <ele>392.360000000000014</ele>
        <time>2012-11-24T08:59:16Z</time>
      </trkpt>
      <trkpt lat="12.978120865300298" lon="101.426434870809317">
        <ele>408.220000000000027</ele>
        <time>2012-11-24T09:00:57Z</time>
      </trkpt>
      <trkpt lat="12.978393444791436" lon="101.427288400009274">
        <ele>416.870000000000005</ele>
        <time>2012-11-24T09:03:26Z</time>
      </trkpt>
      <trkpt lat="12.978250868618488" lon="101.429849239066243">
        <ele>402.930000000000007</ele>
        <time>2012-11-24T09:04:28Z</time>
      </trkpt>
      <trkpt lat="12.978455638512969" lon="101.430620038881898">
        <ele>400.529999999999973</ele>
        <time>2012-11-24T09:04:46Z</time>
      </trkpt>
      <trkpt lat="12.978632999584079" lon="101.431270139291883">
        <ele>391.389999999999986</ele>
        <time>2012-11-24T09:04:58Z</time>
      </trkpt>
      <trkpt lat="12.978595281019807" lon="101.431871624663472">
        <ele>381.300000000000011</ele>
        <time>2012-11-24T09:05:13Z</time>
      </trkpt>
      <trkpt lat="12.978321947157383" lon="101.431944631040096">
        <ele>374.569999999999993</ele>
        <time>2012-11-24T09:05:26Z</time>
      </trkpt>
      <trkpt lat="12.97795188613236" lon="101.432000705972314">
        <ele>362.069999999999993</ele>
        <time>2012-11-24T09:05:39Z</time>
      </trkpt>
      <trkpt lat="12.977148564532399" lon="101.431756373494864">
        <ele>349.579999999999984</ele>
        <time>2012-11-24T09:06:00Z</time>
      </trkpt>
      <trkpt lat="12.976789567619562" lon="101.432100282981992">
        <ele>348.129999999999995</ele>
        <time>2012-11-24T09:06:18Z</time>
      </trkpt>
      <trkpt lat="12.976309955120087" lon="101.432388368993998">
        <ele>336.600000000000023</ele>
        <time>2012-11-24T09:06:34Z</time>
      </trkpt>
      <trkpt lat="12.976041818037629" lon="101.43286194652319">
        <ele>324.100000000000023</ele>
        <time>2012-11-24T09:06:51Z</time>
      </trkpt>
      <trkpt lat="12.976129492744803" lon="101.434090146794915">
        <ele>319.779999999999973</ele>
        <time>2012-11-24T09:07:21Z</time>
      </trkpt>
      <trkpt lat="12.976271817460656" lon="101.434684423729777">
        <ele>312.089999999999975</ele>
        <time>2012-11-24T09:07:30Z</time>
      </trkpt>
      <trkpt lat="12.976160421967506" lon="101.434882069006562">
        <ele>310.160000000000025</ele>
        <time>2012-11-24T09:07:36Z</time>
      </trkpt>
      <trkpt lat="12.976089175790548" lon="101.435014167800546">
        <ele>307.279999999999973</ele>
        <time>2012-11-24T09:07:39Z</time>
      </trkpt>
      <trkpt lat="12.976329904049635" lon="101.435376852750778">
        <ele>301.029999999999973</ele>
        <time>2012-11-24T09:07:49Z</time>
      </trkpt>
      <trkpt lat="12.977463221177459" lon="101.436031982302666">
        <ele>299.110000000000014</ele>
        <time>2012-11-24T09:08:17Z</time>
      </trkpt>
      <trkpt lat="12.979144128039479" lon="101.436321660876274">
        <ele>297.670000000000016</ele>
        <time>2012-11-24T09:08:58Z</time>
      </trkpt>
      <trkpt lat="12.980155739933252" lon="101.43636935390532">
        <ele>287.089999999999975</ele>
        <time>2012-11-24T09:09:12Z</time>
      </trkpt>
      <trkpt lat="12.980238636955619" lon="101.436437666416168">
        <ele>286.610000000000014</ele>
        <time>2012-11-24T09:09:14Z</time>
      </trkpt>
      <trkpt lat="12.980053732171655" lon="101.437039487063885">
        <ele>278.439999999999998</ele>
        <time>2012-11-24T09:09:23Z</time>
      </trkpt>
      <trkpt lat="12.979862624779344" lon="101.437304690480232">
        <ele>268.829999999999984</ele>
        <time>2012-11-24T09:09:29Z</time>
      </trkpt>
      <trkpt lat="12.977327015250921" lon="101.438206331804395">
        <ele>246.22999999999999</ele>
        <time>2012-11-24T09:09:55Z</time>
      </trkpt>
      <trkpt lat="12.976921079680324" lon="101.438248241320252">
        <ele>240.469999999999999</ele>
        <time>2012-11-24T09:10:00Z</time>
      </trkpt>
      <trkpt lat="12.976503577083349" lon="101.438427697867155">
        <ele>237.099999999999994</ele>
        <time>2012-11-24T09:10:06Z</time>
      </trkpt>
      <trkpt lat="12.976239128038287" lon="101.438647052273154">
        <ele>230.370000000000005</ele>
        <time>2012-11-24T09:10:10Z</time>
      </trkpt>
      <trkpt lat="12.975276047363877" lon="101.438978221267462">
        <ele>220.280000000000001</ele>
        <time>2012-11-24T09:10:22Z</time>
      </trkpt>
      <trkpt lat="12.974968682974577" lon="101.439201096072793">
        <ele>214.030000000000001</ele>
        <time>2012-11-24T09:10:26Z</time>
      </trkpt>
      <trkpt lat="12.974790399894118" lon="101.439545089378953">
        <ele>208.740000000000009</ele>
        <time>2012-11-24T09:10:30Z</time>
      </trkpt>
      <trkpt lat="12.974102664738894" lon="101.440111203119159">
        <ele>198.650000000000006</ele>
        <time>2012-11-24T09:10:39Z</time>
      </trkpt>
      <trkpt lat="12.973651802167296" lon="101.44034187309444">
        <ele>188.560000000000002</ele>
        <time>2012-11-24T09:10:45Z</time>
      </trkpt>
      <trkpt lat="12.973145367577672" lon="101.440868759527802">
        <ele>178.460000000000008</ele>
        <time>2012-11-24T09:10:52Z</time>
      </trkpt>
      <trkpt lat="12.971037235110998" lon="101.442229310050607">
        <ele>152.990000000000009</ele>
        <time>2012-11-24T09:11:13Z</time>
      </trkpt>
      <trkpt lat="12.970613781362772" lon="101.442706491798162">
        <ele>149.139999999999986</ele>
        <time>2012-11-24T09:11:19Z</time>
      </trkpt>
      <trkpt lat="12.970382524654269" lon="101.442944370210171">
        <ele>143.849999999999994</ele>
        <time>2012-11-24T09:11:22Z</time>
      </trkpt>
      <trkpt lat="12.969586662948132" lon="101.444131163880229">
        <ele>136.639999999999986</ele>
        <time>2012-11-24T09:11:35Z</time>
      </trkpt>
      <trkpt lat="12.969125574454665" lon="101.444724854081869">
        <ele>129.430000000000007</ele>
        <time>2012-11-24T09:11:42Z</time>
      </trkpt>
      <trkpt lat="12.968585947528481" lon="101.445819865912199">
        <ele>118.859999999999999</ele>
        <time>2012-11-24T09:11:53Z</time>
      </trkpt>
      <trkpt lat="12.968247570097446" lon="101.446068556979299">
        <ele>117.900000000000006</ele>
        <time>2012-11-24T09:11:59Z</time>
      </trkpt>
      <trkpt lat="12.967736022546887" lon="101.445901589468122">
        <ele>119.340000000000003</ele>
        <time>2012-11-24T09:12:09Z</time>
      </trkpt>
      <trkpt lat="12.966875284910202" lon="101.446054223924875">
        <ele>123.670000000000002</ele>
        <time>2012-11-24T09:14:34Z</time>
      </trkpt>
      <trkpt lat="12.966824574396014" lon="101.446109544485807">
        <ele>123.189999999999998</ele>
        <time>2012-11-24T09:14:38Z</time>
      </trkpt>
      <trkpt lat="12.965625040233135" lon="101.448049284517765">
        <ele>119.819999999999993</ele>
        <time>2012-11-24T09:15:26Z</time>
      </trkpt>
      <trkpt lat="12.964671598747373" lon="101.449969913810492">
        <ele>114.049999999999997</ele>
        <time>2012-11-24T09:15:59Z</time>
      </trkpt>
      <trkpt lat="12.964211935177445" lon="101.451278412714601">
        <ele>109.25</ele>
        <time>2012-11-24T09:16:17Z</time>
      </trkpt>
      <trkpt lat="12.963238544762135" lon="101.451930943876505">
        <ele>108.769999999999996</ele>
        <time>2012-11-24T09:16:32Z</time>
      </trkpt>
      <trkpt lat="12.962578050792217" lon="101.452606273815036">
        <ele>111.650000000000006</ele>
        <time>2012-11-24T09:16:50Z</time>
      </trkpt>
      <trkpt lat="12.962488867342472" lon="101.45273451693356">
        <ele>111.170000000000002</ele>
        <time>2012-11-24T09:16:53Z</time>
      </trkpt>
      <trkpt lat="12.962042614817619" lon="101.452889917418361">
        <ele>111.650000000000006</ele>
        <time>2012-11-24T09:17:03Z</time>
      </trkpt>
      <trkpt lat="12.961597451940179" lon="101.45259671844542">
        <ele>114.049999999999997</ele>
        <time>2012-11-24T09:17:19Z</time>
      </trkpt>
      <trkpt lat="12.961094873026013" lon="101.452197069302201">
        <ele>114.530000000000001</ele>
        <time>2012-11-24T09:17:35Z</time>
      </trkpt>
      <trkpt lat="12.960864622145891" lon="101.4520054589957">
        <ele>114.049999999999997</ele>
        <time>2012-11-24T09:17:41Z</time>
      </trkpt>
      <trkpt lat="12.960220640525222" lon="101.452011661604047">
        <ele>112.129999999999995</ele>
        <time>2012-11-24T09:17:52Z</time>
      </trkpt>
      <trkpt lat="12.959037618711591" lon="101.451543532311916">
        <ele>113.569999999999993</ele>
        <time>2012-11-24T09:18:18Z</time>
      </trkpt>
      <trkpt lat="12.958199847489595" lon="101.451146481558681">
        <ele>108.290000000000006</ele>
        <time>2012-11-24T09:18:32Z</time>
      </trkpt>
      <trkpt lat="12.957820063456893" lon="101.451172884553671">
        <ele>106.359999999999999</ele>
        <time>2012-11-24T09:18:38Z</time>
      </trkpt>
      <trkpt lat="12.957429718226194" lon="101.451433394104242">
        <ele>105.879999999999995</ele>
        <time>2012-11-24T09:18:45Z</time>
      </trkpt>
      <trkpt lat="12.956625474616885" lon="101.452271416783333">
        <ele>108.769999999999996</ele>
        <time>2012-11-24T09:19:07Z</time>
      </trkpt>
      <trkpt lat="12.955546053126454" lon="101.452265130355954">
        <ele>108.290000000000006</ele>
        <time>2012-11-24T09:19:27Z</time>
      </trkpt>
      <trkpt lat="12.95523701235652" lon="101.452382560819387">
        <ele>114.530000000000001</ele>
        <time>2012-11-24T09:19:48Z</time>
      </trkpt>
      <trkpt lat="12.954729404300451" lon="101.451697424054146">
        <ele>109.25</ele>
        <time>2012-11-24T09:21:34Z</time>
      </trkpt>
      <trkpt lat="12.954085003584623" lon="101.451150337234139">
        <ele>111.650000000000006</ele>
        <time>2012-11-24T09:21:57Z</time>
      </trkpt>
      <trkpt lat="12.954077124595642" lon="101.451142122969031">
        <ele>108.290000000000006</ele>
        <time>2012-11-24T09:25:32Z</time>
      </trkpt>
    </trkseg>
  </trk>

  <trk>
    <name>Saturday</name>
    <extensions>
      <gpxx:TrackExtension>
        <gpxx:DisplayColor>Red</gpxx:DisplayColor>
      </gpxx:TrackExtension>
    </extensions>
    <trkseg>
      <trkpt lat="13.023275099694729" lon="101.424355823546648">
        <ele>89.059326171875</ele>
        <time>2012-11-24T06:03:57Z</time>
      </trkpt>
      <trkpt lat="13.023118022829294" lon="101.424424387514591">
        <ele>89.5399169921875</ele>
        <time>2012-11-24T06:04:06Z</time>
      </trkpt>
      <trkpt lat="13.023227574303746" lon="101.424564952030778">
        <ele>89.5399169921875</ele>
        <time>2012-11-24T06:04:12Z</time>
      </trkpt>
      <trkpt lat="13.023775247856975" lon="101.424806015565991">
        <ele>89.059326171875</ele>
        <time>2012-11-24T06:04:29Z</time>
      </trkpt>
      <trkpt lat="13.023922853171825" lon="101.424880949780345">
        <ele>87.1365966796875</ele>
        <time>2012-11-24T06:04:32Z</time>
      </trkpt>
      <trkpt lat="13.02538356743753" lon="101.424572579562664">
        <ele>80.407470703125</ele>
        <time>2012-11-24T06:04:58Z</time>
      </trkpt>
      <trkpt lat="13.025843901559711" lon="101.42470040358603">
        <ele>79.446044921875</ele>
        <time>2012-11-24T06:05:06Z</time>
      </trkpt>
      <trkpt lat="13.02615612745285" lon="101.424989830702543">
        <ele>78.9654541015625</ele>
        <time>2012-11-24T06:05:12Z</time>
      </trkpt>
      <trkpt lat="13.026451086625457" lon="101.426034551113844">
        <ele>74.1588134765625</ele>
        <time>2012-11-24T06:05:25Z</time>
      </trkpt>
      <trkpt lat="13.026583017781377" lon="101.427394011989236">
        <ele>72.7169189453125</ele>
        <time>2012-11-24T06:05:41Z</time>
      </trkpt>
      <trkpt lat="13.026343798264861" lon="101.428487598896027">
        <ele>70.794189453125</ele>
        <time>2012-11-24T06:05:56Z</time>
      </trkpt>
      <trkpt lat="13.025967366993427" lon="101.429281700402498">
        <ele>67.4296875</ele>
        <time>2012-11-24T06:06:11Z</time>
      </trkpt>
      <trkpt lat="13.024366423487663" lon="101.42969174310565">
        <ele>71.7554931640625</ele>
        <time>2012-11-24T06:07:03Z</time>
      </trkpt>
      <trkpt lat="13.023786814883351" lon="101.430037580430508">
        <ele>71.7554931640625</ele>
        <time>2012-11-24T06:07:16Z</time>
      </trkpt>
      <trkpt lat="13.022881736978889" lon="101.430570418015122">
        <ele>70.3134765625</ele>
        <time>2012-11-24T06:07:31Z</time>
      </trkpt>
      <trkpt lat="13.021459579467773" lon="101.43222282640636">
        <ele>66.46826171875</ele>
        <time>2012-11-24T06:08:10Z</time>
      </trkpt>
      <trkpt lat="13.020519129931927" lon="101.433613300323486">
        <ele>65.507080078125</ele>
        <time>2012-11-24T06:08:36Z</time>
      </trkpt>
      <trkpt lat="13.020301619544625" lon="101.433655964210629">
        <ele>64.0650634765625</ele>
        <time>2012-11-24T06:08:43Z</time>
      </trkpt>
      <trkpt lat="13.019940443336964" lon="101.433291770517826">
        <ele>64.0650634765625</ele>
        <time>2012-11-24T06:08:53Z</time>
      </trkpt>
      <trkpt lat="13.019733997061849" lon="101.432674024254084">
        <ele>65.0263671875</ele>
        <time>2012-11-24T06:09:09Z</time>
      </trkpt>
      <trkpt lat="13.019523862749338" lon="101.432169685140252">
        <ele>65.0263671875</ele>
        <time>2012-11-24T06:09:27Z</time>
      </trkpt>
      <trkpt lat="13.018401861190796" lon="101.431744135916233">
        <ele>66.948974609375</ele>
        <time>2012-11-24T06:10:03Z</time>
      </trkpt>
      <trkpt lat="13.017913531512022" lon="101.430977946147323">
        <ele>69.352294921875</ele>
        <time>2012-11-24T06:10:25Z</time>
      </trkpt>
      <trkpt lat="13.017589822411537" lon="101.429818058386445">
        <ele>66.948974609375</ele>
        <time>2012-11-24T06:10:43Z</time>
      </trkpt>
      <trkpt lat="13.017614800482988" lon="101.429353365674615">
        <ele>67.4296875</ele>
        <time>2012-11-24T06:10:51Z</time>
      </trkpt>
      <trkpt lat="13.016389282420278" lon="101.427739849314094">
        <ele>65.9876708984375</ele>
        <time>2012-11-24T06:11:29Z</time>
      </trkpt>
      <trkpt lat="13.015462076291442" lon="101.427671955898404">
        <ele>64.545654296875</ele>
        <time>2012-11-24T06:11:56Z</time>
      </trkpt>
      <trkpt lat="13.014498241245747" lon="101.428311411291361">
        <ele>64.545654296875</ele>
        <time>2012-11-24T06:12:15Z</time>
      </trkpt>
      <trkpt lat="13.012508880347013" lon="101.42875112593174">
        <ele>64.545654296875</ele>
        <time>2012-11-24T06:12:46Z</time>
      </trkpt>
      <trkpt lat="13.012008145451546" lon="101.428316943347454">
        <ele>64.545654296875</ele>
        <time>2012-11-24T06:12:58Z</time>
      </trkpt>
      <trkpt lat="13.011351507157087" lon="101.42728085629642">
        <ele>62.6229248046875</ele>
        <time>2012-11-24T06:14:26Z</time>
      </trkpt>
      <trkpt lat="13.011312363669276" lon="101.427223272621632">
        <ele>61.1810302734375</ele>
        <time>2012-11-24T06:15:21Z</time>
      </trkpt>
      <trkpt lat="13.010252974927425" lon="101.427694167941809">
        <ele>61.1810302734375</ele>
        <time>2012-11-24T06:16:00Z</time>
      </trkpt>
      <trkpt lat="13.00991359166801" lon="101.427684612572193">
        <ele>61.1810302734375</ele>
        <time>2012-11-24T06:16:10Z</time>
      </trkpt>
      <trkpt lat="13.00898764282465" lon="101.428044615313411">
        <ele>63.5843505859375</ele>
        <time>2012-11-24T06:16:41Z</time>
      </trkpt>
      <trkpt lat="13.008898459374905" lon="101.428215187042952">
        <ele>62.6229248046875</ele>
        <time>2012-11-24T06:16:49Z</time>
      </trkpt>
      <trkpt lat="13.008752446621656" lon="101.427671452984214">
        <ele>72.2362060546875</ele>
        <time>2012-11-24T06:17:40Z</time>
      </trkpt>
      <trkpt lat="13.008666448295116" lon="101.427779998630285">
        <ele>76.0814208984375</ele>
        <time>2012-11-24T06:17:51Z</time>
      </trkpt>
      <trkpt lat="13.008490009233356" lon="101.427992144599557">
        <ele>78.4847412109375</ele>
        <time>2012-11-24T06:18:08Z</time>
      </trkpt>
      <trkpt lat="13.008327903226018" lon="101.427976135164499">
        <ele>78.9654541015625</ele>
        <time>2012-11-24T06:18:15Z</time>
      </trkpt>
      <trkpt lat="13.00825665704906" lon="101.42778854817152">
        <ele>84.7333984375</ele>
        <time>2012-11-24T06:18:32Z</time>
      </trkpt>
      <trkpt lat="13.008117098361254" lon="101.427385127171874">
        <ele>90.0206298828125</ele>
        <time>2012-11-24T06:19:05Z</time>
      </trkpt>
      <trkpt lat="13.008085414767265" lon="101.427211370319128">
        <ele>90.5013427734375</ele>
        <time>2012-11-24T06:19:18Z</time>
      </trkpt>
      <trkpt lat="13.008098239079118" lon="101.425658538937569">
        <ele>112.1309814453125</ele>
        <time>2012-11-24T06:21:42Z</time>
      </trkpt>
      <trkpt lat="13.007921297103167" lon="101.424733176827431">
        <ele>125.58935546875</ele>
        <time>2012-11-24T06:23:21Z</time>
      </trkpt>
      <trkpt lat="13.008197564631701" lon="101.424317182973027">
        <ele>138.0865478515625</ele>
        <time>2012-11-24T06:24:17Z</time>
      </trkpt>
      <trkpt lat="13.008052054792643" lon="101.423893896862864">
        <ele>141.4510498046875</ele>
        <time>2012-11-24T06:25:13Z</time>
      </trkpt>
      <trkpt lat="13.008173508569598" lon="101.423710500821471">
        <ele>144.335205078125</ele>
        <time>2012-11-24T06:25:56Z</time>
      </trkpt>
      <trkpt lat="13.00836369395256" lon="101.423563733696938">
        <ele>143.3736572265625</ele>
        <time>2012-11-24T06:26:15Z</time>
      </trkpt>
      <trkpt lat="13.009895235300064" lon="101.422695452347398">
        <ele>154.9095458984375</ele>
        <time>2012-11-24T06:28:11Z</time>
      </trkpt>
      <trkpt lat="13.010393623262644" lon="101.422244422137737">
        <ele>184.2298583984375</ele>
        <time>2012-11-24T06:34:06Z</time>
      </trkpt>
      <trkpt lat="13.009399110451341" lon="101.422954704612494">
        <ele>178.942626953125</ele>
        <time>2012-11-24T06:34:59Z</time>
      </trkpt>
      <trkpt lat="13.009160980582237" lon="101.423022681847215">
        <ele>171.732666015625</ele>
        <time>2012-11-24T06:35:14Z</time>
      </trkpt>
      <trkpt lat="13.009147737175226" lon="101.423242455348372">
        <ele>173.6552734375</ele>
        <time>2012-11-24T06:35:17Z</time>
      </trkpt>
      <trkpt lat="13.009134493768215" lon="101.42299946397543">
        <ele>151.064208984375</ele>
        <time>2012-11-24T06:36:02Z</time>
      </trkpt>
      <trkpt lat="13.008831487968564" lon="101.422843225300312">
        <ele>165.484130859375</ele>
        <time>2012-11-24T06:36:13Z</time>
      </trkpt>
      <trkpt lat="13.00901890732348" lon="101.422925954684615">
        <ele>161.158203125</ele>
        <time>2012-11-24T06:37:29Z</time>
      </trkpt>
      <trkpt lat="13.009322918951511" lon="101.422378364950418">
        <ele>153.9483642578125</ele>
        <time>2012-11-24T06:38:54Z</time>
      </trkpt>
      <trkpt lat="13.009141618385911" lon="101.422090195119381">
        <ele>154.9095458984375</ele>
        <time>2012-11-24T06:39:18Z</time>
      </trkpt>
      <trkpt lat="13.008498810231686" lon="101.421803031116724">
        <ele>143.8543701171875</ele>
        <time>2012-11-24T06:41:25Z</time>
      </trkpt>
      <trkpt lat="13.007833454757929" lon="101.42255631275475">
        <ele>138.5672607421875</ele>
        <time>2012-11-24T06:42:08Z</time>
      </trkpt>
      <trkpt lat="13.007575627416372" lon="101.422976581379771">
        <ele>130.876708984375</ele>
        <time>2012-11-24T06:42:43Z</time>
      </trkpt>
      <trkpt lat="13.007053434848785" lon="101.423491397872567">
        <ele>131.837890625</ele>
        <time>2012-11-24T06:43:12Z</time>
      </trkpt>
      <trkpt lat="13.006053725257516" lon="101.424512648954988">
        <ele>126.5506591796875</ele>
        <time>2012-11-24T06:44:05Z</time>
      </trkpt>
      <trkpt lat="13.005618201568723" lon="101.42480936832726">
        <ele>125.1087646484375</ele>
        <time>2012-11-24T06:44:23Z</time>
      </trkpt>
      <trkpt lat="13.005296671763062" lon="101.424875920638442">
        <ele>122.2247314453125</ele>
        <time>2012-11-24T06:44:39Z</time>
      </trkpt>
      <trkpt lat="13.005285188555717" lon="101.424083998426795">
        <ele>127.511962890625</ele>
        <time>2012-11-24T06:47:16Z</time>
      </trkpt>
      <trkpt lat="13.005321649834514" lon="101.42388928681612">
        <ele>127.9925537109375</ele>
        <time>2012-11-24T06:47:42Z</time>
      </trkpt>
      <trkpt lat="13.005299353972077" lon="101.423822147771716">
        <ele>123.666748046875</ele>
        <time>2012-11-24T06:47:59Z</time>
      </trkpt>
      <trkpt lat="13.005045969039202" lon="101.423859279602766">
        <ele>125.58935546875</ele>
        <time>2012-11-24T06:48:36Z</time>
      </trkpt>
      <trkpt lat="13.004513047635555" lon="101.423959443345666">
        <ele>122.7054443359375</ele>
        <time>2012-11-24T06:49:28Z</time>
      </trkpt>
      <trkpt lat="13.003922374919057" lon="101.424941634759307">
        <ele>129.4346923828125</ele>
        <time>2012-11-24T06:50:25Z</time>
      </trkpt>
      <trkpt lat="13.003877950832248" lon="101.425498947501183">
        <ele>128.473388671875</ele>
        <time>2012-11-24T06:50:42Z</time>
      </trkpt>
      <trkpt lat="13.003693129867315" lon="101.425705645233393">
        <ele>121.744140625</ele>
        <time>2012-11-24T06:50:56Z</time>
      </trkpt>
      <trkpt lat="13.003706121817231" lon="101.426101438701153">
        <ele>107.8050537109375</ele>
        <time>2012-11-24T06:51:14Z</time>
      </trkpt>
      <trkpt lat="13.003485426306725" lon="101.426579877734184">
        <ele>107.3243408203125</ele>
        <time>2012-11-24T06:51:34Z</time>
      </trkpt>
      <trkpt lat="13.003232795745134" lon="101.426797974854708">
        <ele>105.8824462890625</ele>
        <time>2012-11-24T06:51:49Z</time>
      </trkpt>
      <trkpt lat="13.002449674531817" lon="101.42695345915854">
        <ele>106.8436279296875</ele>
        <time>2012-11-24T06:52:22Z</time>
      </trkpt>
      <trkpt lat="13.002171730622649" lon="101.42715479247272">
        <ele>109.7276611328125</ele>
        <time>2012-11-24T06:52:43Z</time>
      </trkpt>
      <trkpt lat="13.001988586038351" lon="101.427590902894735">
        <ele>115.014892578125</ele>
        <time>2012-11-24T06:53:22Z</time>
      </trkpt>
      <trkpt lat="13.002169299870729" lon="101.427870942279696">
        <ele>115.49560546875</ele>
        <time>2012-11-24T06:53:38Z</time>
      </trkpt>
      <trkpt lat="13.002381529659033" lon="101.428169338032603">
        <ele>114.0535888671875</ele>
        <time>2012-11-24T06:53:55Z</time>
      </trkpt>
      <trkpt lat="13.002956444397569" lon="101.42874039709568">
        <ele>103.959716796875</ele>
        <time>2012-11-24T06:54:29Z</time>
      </trkpt>
      <trkpt lat="13.003375623375177" lon="101.429341211915016">
        <ele>94.8271484375</ele>
        <time>2012-11-24T06:54:59Z</time>
      </trkpt>
      <trkpt lat="13.00327705219388" lon="101.429397873580456">
        <ele>94.8271484375</ele>
        <time>2012-11-24T06:55:07Z</time>
      </trkpt>
      <trkpt lat="13.001552224159241" lon="101.42904382199049">
        <ele>91.9432373046875</ele>
        <time>2012-11-24T06:56:15Z</time>
      </trkpt>
      <trkpt lat="13.001075042411685" lon="101.429277341812849">
        <ele>101.07568359375</ele>
        <time>2012-11-24T06:57:13Z</time>
      </trkpt>
      <trkpt lat="13.000430054962635" lon="101.429738011211157">
        <ele>108.7662353515625</ele>
        <time>2012-11-24T06:58:46Z</time>
      </trkpt>
      <trkpt lat="12.999918758869171" lon="101.429736334830523">
        <ele>115.014892578125</ele>
        <time>2012-11-24T06:59:45Z</time>
      </trkpt>
      <trkpt lat="12.999441660940647" lon="101.429322604089975">
        <ele>124.1473388671875</ele>
        <time>2012-11-24T07:00:54Z</time>
      </trkpt>
      <trkpt lat="12.998683685436845" lon="101.427953336387873">
        <ele>130.39599609375</ele>
        <time>2012-11-24T07:02:09Z</time>
      </trkpt>
      <trkpt lat="12.997170751914382" lon="101.426440486684442">
        <ele>151.064208984375</ele>
        <time>2012-11-24T07:04:51Z</time>
      </trkpt>
      <trkpt lat="12.997107384726405" lon="101.426472337916493">
        <ele>150.10302734375</ele>
        <time>2012-11-24T07:04:56Z</time>
      </trkpt>
      <trkpt lat="12.996533140540123" lon="101.426922110840678">
        <ele>147.218994140625</ele>
        <time>2012-11-24T07:05:32Z</time>
      </trkpt>
      <trkpt lat="12.995638875290751" lon="101.428402019664645">
        <ele>140.0091552734375</ele>
        <time>2012-11-24T07:06:56Z</time>
      </trkpt>
      <trkpt lat="12.995422538369894" lon="101.429052790626884">
        <ele>142.4124755859375</ele>
        <time>2012-11-24T07:07:32Z</time>
      </trkpt>
      <trkpt lat="12.994800182059407" lon="101.429714038968086">
        <ele>131.3572998046875</ele>
        <time>2012-11-24T07:08:34Z</time>
      </trkpt>
      <trkpt lat="12.9944499861449" lon="101.429942362010479">
        <ele>121.744140625</ele>
        <time>2012-11-24T07:09:23Z</time>
      </trkpt>
      <trkpt lat="12.994411010295153" lon="101.430005896836519">
        <ele>125.1087646484375</ele>
        <time>2012-11-24T07:09:45Z</time>
      </trkpt>
      <trkpt lat="12.994409082457423" lon="101.430073203518987">
        <ele>124.6280517578125</ele>
        <time>2012-11-24T07:09:49Z</time>
      </trkpt>
      <trkpt lat="12.994131557643414" lon="101.430693967267871">
        <ele>120.3021240234375</ele>
        <time>2012-11-24T07:10:18Z</time>
      </trkpt>
      <trkpt lat="12.993903905153275" lon="101.430824808776379">
        <ele>119.8214111328125</ele>
        <time>2012-11-24T07:10:45Z</time>
      </trkpt>
      <trkpt lat="12.993473913520575" lon="101.430910052731633">
        <ele>115.014892578125</ele>
        <time>2012-11-24T07:11:08Z</time>
      </trkpt>
      <trkpt lat="12.992795817553997" lon="101.431476753205061">
        <ele>114.5341796875</ele>
        <time>2012-11-24T07:11:48Z</time>
      </trkpt>
      <trkpt lat="12.992685427889228" lon="101.432399516925216">
        <ele>101.556396484375</ele>
        <time>2012-11-24T07:12:31Z</time>
      </trkpt>
      <trkpt lat="12.992768660187721" lon="101.432936796918511">
        <ele>99.153076171875</ele>
        <time>2012-11-24T07:12:47Z</time>
      </trkpt>
      <trkpt lat="12.992518711835146" lon="101.433494193479419">
        <ele>98.6724853515625</ele>
        <time>2012-11-24T07:13:04Z</time>
      </trkpt>
      <trkpt lat="12.991693681105971" lon="101.432772679254413">
        <ele>108.28564453125</ele>
        <time>2012-11-24T07:15:15Z</time>
      </trkpt>
      <trkpt lat="12.991569880396128" lon="101.432828335091472">
        <ele>110.208251953125</ele>
        <time>2012-11-24T07:15:40Z</time>
      </trkpt>
      <trkpt lat="12.991479858756065" lon="101.433004522696137">
        <ele>113.09228515625</ele>
        <time>2012-11-24T07:16:01Z</time>
      </trkpt>
      <trkpt lat="12.991286823526025" lon="101.433299733325839">
        <ele>112.1309814453125</ele>
        <time>2012-11-24T07:16:28Z</time>
      </trkpt>
      <trkpt lat="12.991089262068272" lon="101.433855788782239">
        <ele>105.4017333984375</ele>
        <time>2012-11-24T07:17:04Z</time>
      </trkpt>
      <trkpt lat="12.991072162985802" lon="101.434433050453663">
        <ele>99.6337890625</ele>
        <time>2012-11-24T07:17:32Z</time>
      </trkpt>
      <trkpt lat="12.990916175767779" lon="101.435341564938426">
        <ele>86.17529296875</ele>
        <time>2012-11-24T07:18:20Z</time>
      </trkpt>
      <trkpt lat="12.990542175248265" lon="101.435909019783139">
        <ele>87.1365966796875</ele>
        <time>2012-11-24T07:18:54Z</time>
      </trkpt>
      <trkpt lat="12.99007086083293" lon="101.435816064476967">
        <ele>91.4625244140625</ele>
        <time>2012-11-24T07:21:02Z</time>
      </trkpt>
      <trkpt lat="12.989810686558485" lon="101.437371075153351">
        <ele>97.711181640625</ele>
        <time>2012-11-24T07:22:36Z</time>
      </trkpt>
      <trkpt lat="12.989713372662663" lon="101.437886646017432">
        <ele>97.711181640625</ele>
        <time>2012-11-24T07:22:55Z</time>
      </trkpt>
      <trkpt lat="12.987971529364586" lon="101.441809795796871">
        <ele>80.407470703125</ele>
        <time>2012-11-24T07:27:34Z</time>
      </trkpt>
      <trkpt lat="12.987306173890829" lon="101.443061465397477">
        <ele>77.5234375</ele>
        <time>2012-11-24T07:28:37Z</time>
      </trkpt>
      <trkpt lat="12.985619902610779" lon="101.445512920618057">
        <ele>76.0814208984375</ele>
        <time>2012-11-24T07:31:04Z</time>
      </trkpt>
      <trkpt lat="12.984715159982443" lon="101.446705246344209">
        <ele>73.1976318359375</ele>
        <time>2012-11-24T07:32:00Z</time>
      </trkpt>
      <trkpt lat="12.984530758112669" lon="101.446933234110475">
        <ele>71.7554931640625</ele>
        <time>2012-11-24T07:32:13Z</time>
      </trkpt>
      <trkpt lat="12.984162457287312" lon="101.447047395631671">
        <ele>72.2362060546875</ele>
        <time>2012-11-24T07:32:28Z</time>
      </trkpt>
      <trkpt lat="12.982482640072703" lon="101.446619750931859">
        <ele>73.67822265625</ele>
        <time>2012-11-24T07:33:45Z</time>
      </trkpt>
      <trkpt lat="12.98241944052279" lon="101.446602484211326">
        <ele>72.7169189453125</ele>
        <time>2012-11-24T07:34:00Z</time>
      </trkpt>
      <trkpt lat="12.981555350124836" lon="101.446980256587267">
        <ele>80.88818359375</ele>
        <time>2012-11-24T07:36:11Z</time>
      </trkpt>
      <trkpt lat="12.981414869427681" lon="101.447136327624321">
        <ele>80.407470703125</ele>
        <time>2012-11-24T07:36:25Z</time>
      </trkpt>
      <trkpt lat="12.98120079562068" lon="101.447366159409285">
        <ele>77.5234375</ele>
        <time>2012-11-24T07:36:43Z</time>
      </trkpt>
      <trkpt lat="12.981044221669436" lon="101.448651859536767">
        <ele>83.2913818359375</ele>
        <time>2012-11-24T07:37:44Z</time>
      </trkpt>
      <trkpt lat="12.981068193912506" lon="101.449760282412171">
        <ele>68.390869140625</ele>
        <time>2012-11-24T07:38:36Z</time>
      </trkpt>
      <trkpt lat="12.981004491448402" lon="101.450124308466911">
        <ele>76.0814208984375</ele>
        <time>2012-11-24T07:38:54Z</time>
      </trkpt>
      <trkpt lat="12.980968365445733" lon="101.450357995927334">
        <ele>75.600830078125</ele>
        <time>2012-11-24T07:39:09Z</time>
      </trkpt>
      <trkpt lat="12.980896029621363" lon="101.450576595962048">
        <ele>79.446044921875</ele>
        <time>2012-11-24T07:39:25Z</time>
      </trkpt>
      <trkpt lat="12.980694025754929" lon="101.450818916782737">
        <ele>80.407470703125</ele>
        <time>2012-11-24T07:39:41Z</time>
      </trkpt>
      <trkpt lat="12.98055823892355" lon="101.450925283133984">
        <ele>79.9266357421875</ele>
        <time>2012-11-24T07:39:56Z</time>
      </trkpt>
      <trkpt lat="12.97988592647016" lon="101.450828136876225">
        <ele>80.407470703125</ele>
        <time>2012-11-24T07:40:25Z</time>
      </trkpt>
      <trkpt lat="12.979549393057823" lon="101.450917236506939">
        <ele>78.0040283203125</ele>
        <time>2012-11-24T07:40:49Z</time>
      </trkpt>
      <trkpt lat="12.978599891066551" lon="101.450668880715966">
        <ele>84.252685546875</ele>
        <time>2012-11-24T07:41:55Z</time>
      </trkpt>
      <trkpt lat="12.978216586634517" lon="101.450545415282249">
        <ele>83.77197265625</ele>
        <time>2012-11-24T07:42:35Z</time>
      </trkpt>
      <trkpt lat="12.97698050737381" lon="101.45103408023715">
        <ele>85.2139892578125</ele>
        <time>2012-11-24T07:43:39Z</time>
      </trkpt>
      <trkpt lat="12.975986748933792" lon="101.451758025214076">
        <ele>80.88818359375</ele>
        <time>2012-11-24T07:44:20Z</time>
      </trkpt>
      <trkpt lat="12.975795557722449" lon="101.451634475961328">
        <ele>88.5787353515625</ele>
        <time>2012-11-24T07:44:33Z</time>
      </trkpt>
      <trkpt lat="12.975639989599586" lon="101.451537581160665">
        <ele>88.0980224609375</ele>
        <time>2012-11-24T07:44:45Z</time>
      </trkpt>
      <trkpt lat="12.975163226947188" lon="101.451782332733274">
        <ele>90.5013427734375</ele>
        <time>2012-11-24T07:45:15Z</time>
      </trkpt>
      <trkpt lat="12.973787086084485" lon="101.452540056779981">
        <ele>84.7333984375</ele>
        <time>2012-11-24T07:45:59Z</time>
      </trkpt>
      <trkpt lat="12.972932299599051" lon="101.452746670693159">
        <ele>80.88818359375</ele>
        <time>2012-11-24T07:46:25Z</time>
      </trkpt>
      <trkpt lat="12.972692158073187" lon="101.452720519155264">
        <ele>82.810791015625</ele>
        <time>2012-11-24T07:46:33Z</time>
      </trkpt>
      <trkpt lat="12.972630634903908" lon="101.452204696834087">
        <ele>79.9266357421875</ele>
        <time>2012-11-24T07:46:42Z</time>
      </trkpt>
      <trkpt lat="12.97214699909091" lon="101.451760288327932">
        <ele>82.810791015625</ele>
        <time>2012-11-24T07:47:21Z</time>
      </trkpt>
      <trkpt lat="12.972016409039497" lon="101.451458120718598">
        <ele>90.5013427734375</ele>
        <time>2012-11-24T07:47:40Z</time>
      </trkpt>
      <trkpt lat="12.971926471218467" lon="101.451023686677217">
        <ele>89.5399169921875</ele>
        <time>2012-11-24T07:47:58Z</time>
      </trkpt>
      <trkpt lat="12.971933679655194" lon="101.450996110215783">
        <ele>87.1365966796875</ele>
        <time>2012-11-24T07:48:03Z</time>
      </trkpt>
      <trkpt lat="12.971910797059536" lon="101.450915224850178">
        <ele>85.694580078125</ele>
        <time>2012-11-24T07:48:07Z</time>
      </trkpt>
      <trkpt lat="12.971688341349363" lon="101.450691847130656">
        <ele>84.252685546875</ele>
        <time>2012-11-24T07:48:20Z</time>
      </trkpt>
      <trkpt lat="12.97101778909564" lon="101.450338801369071">
        <ele>90.5013427734375</ele>
        <time>2012-11-24T07:49:07Z</time>
      </trkpt>
      <trkpt lat="12.969443751499057" lon="101.450007632374763">
        <ele>87.1365966796875</ele>
        <time>2012-11-24T07:50:00Z</time>
      </trkpt>
      <trkpt lat="12.968840673565865" lon="101.450007297098637">
        <ele>73.67822265625</ele>
        <time>2012-11-24T07:50:20Z</time>
      </trkpt>
      <trkpt lat="12.968582594767213" lon="101.450218101963401">
        <ele>76.0814208984375</ele>
        <time>2012-11-24T07:50:34Z</time>
      </trkpt>
      <trkpt lat="12.96831663697958" lon="101.450824113562703">
        <ele>82.330078125</ele>
        <time>2012-11-24T07:50:58Z</time>
      </trkpt>
      <trkpt lat="12.967466292902827" lon="101.451929435133934">
        <ele>78.0040283203125</ele>
        <time>2012-11-24T07:51:41Z</time>
      </trkpt>
      <trkpt lat="12.966184029355645" lon="101.451718546450138">
        <ele>86.17529296875</ele>
        <time>2012-11-24T07:52:29Z</time>
      </trkpt>
      <trkpt lat="12.965281382203102" lon="101.451705051586032">
        <ele>81.3687744140625</ele>
        <time>2012-11-24T07:53:37Z</time>
      </trkpt>
      <trkpt lat="12.964289216324687" lon="101.451488630846143">
        <ele>85.2139892578125</ele>
        <time>2012-11-24T07:54:43Z</time>
      </trkpt>
      <trkpt lat="12.963650096207857" lon="101.451742770150304">
        <ele>80.88818359375</ele>
        <time>2012-11-24T07:55:04Z</time>
      </trkpt>
      <trkpt lat="12.962485766038299" lon="101.452786149457097">
        <ele>80.88818359375</ele>
        <time>2012-11-24T07:56:01Z</time>
      </trkpt>
      <trkpt lat="12.961949491873384" lon="101.452942807227373">
        <ele>80.88818359375</ele>
        <time>2012-11-24T07:56:20Z</time>
      </trkpt>
      <trkpt lat="12.961341887712479" lon="101.452400833368301">
        <ele>88.0980224609375</ele>
        <time>2012-11-24T07:56:52Z</time>
      </trkpt>
      <trkpt lat="12.960873255506158" lon="101.451992215588689">
        <ele>89.5399169921875</ele>
        <time>2012-11-24T07:57:10Z</time>
      </trkpt>
      <trkpt lat="12.960731768980622" lon="101.451821224763989">
        <ele>89.5399169921875</ele>
        <time>2012-11-24T07:57:15Z</time>
      </trkpt>
      <trkpt lat="12.96020538546145" lon="101.451959609985352">
        <ele>89.059326171875</ele>
        <time>2012-11-24T07:57:31Z</time>
      </trkpt>
      <trkpt lat="12.958694128319621" lon="101.45143280737102">
        <ele>91.9432373046875</ele>
        <time>2012-11-24T07:58:14Z</time>
      </trkpt>
      <trkpt lat="12.958348290994763" lon="101.45122610963881">
        <ele>88.5787353515625</ele>
        <time>2012-11-24T07:58:24Z</time>
      </trkpt>
      <trkpt lat="12.957354951649904" lon="101.451524756848812">
        <ele>83.77197265625</ele>
        <time>2012-11-24T07:58:34Z</time>
      </trkpt>
      <trkpt lat="12.956775426864624" lon="101.452177874743938">
        <ele>79.9266357421875</ele>
        <time>2012-11-24T07:58:59Z</time>
      </trkpt>
      <trkpt lat="12.955273892730474" lon="101.452284911647439">
        <ele>79.9266357421875</ele>
        <time>2012-11-24T07:59:46Z</time>
      </trkpt>
      <trkpt lat="12.954329000785947" lon="101.45128570497036">
        <ele>77.0428466796875</ele>
        <time>2012-11-24T08:00:57Z</time>
      </trkpt>
      <trkpt lat="12.953675631433725" lon="101.450899550691247">
        <ele>81.849365234375</ele>
        <time>2012-11-24T08:01:29Z</time>
      </trkpt>
      <trkpt lat="12.953164000064135" lon="101.450558491051197">
        <ele>82.810791015625</ele>
        <time>2012-11-24T08:01:49Z</time>
      </trkpt>
      <trkpt lat="12.95245572924614" lon="101.450077285990119">
        <ele>82.810791015625</ele>
        <time>2012-11-24T08:02:08Z</time>
      </trkpt>
      <trkpt lat="12.95070206746459" lon="101.449605049565434">
        <ele>81.849365234375</ele>
        <time>2012-11-24T08:02:46Z</time>
      </trkpt>
      <trkpt lat="12.949853735044599" lon="101.44918704405427">
        <ele>74.1588134765625</ele>
        <time>2012-11-24T08:03:03Z</time>
      </trkpt>
      <trkpt lat="12.949522482231259" lon="101.447959765791893">
        <ele>70.794189453125</ele>
        <time>2012-11-24T08:03:30Z</time>
      </trkpt>
      <trkpt lat="12.949556093662977" lon="101.44799429923296">
        <ele>74.6395263671875</ele>
        <time>2012-11-24T08:03:48Z</time>
      </trkpt>
      <trkpt lat="12.949565397575498" lon="101.448028078302741">
        <ele>74.6395263671875</ele>
        <time>2012-11-24T08:06:22Z</time>
      </trkpt>
      <trkpt lat="12.949612671509385" lon="101.448350446298718">
        <ele>75.1202392578125</ele>
        <time>2012-11-24T08:06:35Z</time>
      </trkpt>
      <trkpt lat="12.949749799445271" lon="101.448599975556135">
        <ele>75.600830078125</ele>
        <time>2012-11-24T08:06:50Z</time>
      </trkpt>
      <trkpt lat="12.949827583506703" lon="101.449123676866293">
        <ele>77.5234375</ele>
        <time>2012-11-24T08:07:10Z</time>
      </trkpt>
      <trkpt lat="12.950797202065587" lon="101.449607396498322">
        <ele>83.77197265625</ele>
        <time>2012-11-24T08:08:12Z</time>
      </trkpt>
      <trkpt lat="12.952760411426425" lon="101.450247773900628">
        <ele>85.2139892578125</ele>
        <time>2012-11-24T08:09:12Z</time>
      </trkpt>
      <trkpt lat="12.953481255099177" lon="101.45073551684618">
        <ele>85.694580078125</ele>
        <time>2012-11-24T08:09:36Z</time>
      </trkpt>
      <trkpt lat="12.954009985551238" lon="101.451091915369034">
        <ele>84.252685546875</ele>
        <time>2012-11-24T08:09:52Z</time>
      </trkpt>
      <trkpt lat="12.952788239344954" lon="101.453254614025354">
        <ele>83.2913818359375</ele>
        <time>2012-11-24T08:10:58Z</time>
      </trkpt>
      <trkpt lat="12.951823147013783" lon="101.454546516761184">
        <ele>91.9432373046875</ele>
        <time>2012-11-24T08:11:37Z</time>
      </trkpt>
      <trkpt lat="12.951829517260194" lon="101.454865867272019">
        <ele>95.3077392578125</ele>
        <time>2012-11-24T08:11:48Z</time>
      </trkpt>
      <trkpt lat="12.950275260955095" lon="101.455195946618915">
        <ele>90.98193359375</ele>
        <time>2012-11-24T08:12:54Z</time>
      </trkpt>
      <trkpt lat="12.950009386986494" lon="101.455313125625253">
        <ele>87.1365966796875</ele>
        <time>2012-11-24T08:13:14Z</time>
      </trkpt>
      <trkpt lat="12.94994761236012" lon="101.455527367070317">
        <ele>85.2139892578125</ele>
        <time>2012-11-24T08:13:36Z</time>
      </trkpt>
      <trkpt lat="12.950316080823541" lon="101.455366769805551">
        <ele>86.656005859375</ele>
        <time>2012-11-24T08:14:08Z</time>
      </trkpt>
      <trkpt lat="12.950522610917687" lon="101.455261828377843">
        <ele>84.252685546875</ele>
        <time>2012-11-24T08:14:37Z</time>
      </trkpt>
      <trkpt lat="12.950347596779466" lon="101.455908659845591">
        <ele>86.17529296875</ele>
        <time>2012-11-24T08:15:08Z</time>
      </trkpt>
      <trkpt lat="12.950556222349405" lon="101.456166906282306">
        <ele>89.059326171875</ele>
        <time>2012-11-24T08:15:23Z</time>
      </trkpt>
      <trkpt lat="12.950058421120048" lon="101.4573017321527">
        <ele>89.5399169921875</ele>
        <time>2012-11-24T08:16:42Z</time>
      </trkpt>
      <trkpt lat="12.949995305389166" lon="101.45753676071763">
        <ele>86.656005859375</ele>
        <time>2012-11-24T08:16:57Z</time>
      </trkpt>
      <trkpt lat="12.950931061059237" lon="101.457413965836167">
        <ele>78.0040283203125</ele>
        <time>2012-11-24T08:17:41Z</time>
      </trkpt>
      <trkpt lat="12.951185284182429" lon="101.458300855010748">
        <ele>71.27490234375</ele>
        <time>2012-11-24T08:18:11Z</time>
      </trkpt>
      <trkpt lat="12.951497090980411" lon="101.458612661808729">
        <ele>70.3134765625</ele>
        <time>2012-11-24T08:18:24Z</time>
      </trkpt>
      <trkpt lat="12.95276602730155" lon="101.459007700905204">
        <ele>73.67822265625</ele>
        <time>2012-11-24T08:19:02Z</time>
      </trkpt>
      <trkpt lat="12.953309928998351" lon="101.459246166050434">
        <ele>73.1976318359375</ele>
        <time>2012-11-24T08:19:18Z</time>
      </trkpt>
      <trkpt lat="12.953668758273125" lon="101.45918732509017">
        <ele>71.27490234375</ele>
        <time>2012-11-24T08:19:29Z</time>
      </trkpt>
      <trkpt lat="12.954037897288799" lon="101.458828747272491">
        <ele>70.794189453125</ele>
        <time>2012-11-24T08:19:50Z</time>
      </trkpt>
      <trkpt lat="12.953810160979629" lon="101.459136698395014">
        <ele>69.8328857421875</ele>
        <time>2012-11-24T08:20:05Z</time>
      </trkpt>
      <trkpt lat="12.953925412148237" lon="101.459184056147933">
        <ele>68.87158203125</ele>
        <time>2012-11-24T08:20:12Z</time>
      </trkpt>
      <trkpt lat="12.955776806920767" lon="101.459099147468805">
        <ele>69.8328857421875</ele>
        <time>2012-11-24T08:21:35Z</time>
      </trkpt>
      <trkpt lat="12.955629620701075" lon="101.459171399474144">
        <ele>70.794189453125</ele>
        <time>2012-11-24T08:21:49Z</time>
      </trkpt>
      <trkpt lat="12.955832378938794" lon="101.459992658346891">
        <ele>72.2362060546875</ele>
        <time>2012-11-24T08:22:16Z</time>
      </trkpt>
      <trkpt lat="12.955835480242968" lon="101.460915673524141">
        <ele>72.2362060546875</ele>
        <time>2012-11-24T08:22:45Z</time>
      </trkpt>
      <trkpt lat="12.955984175205231" lon="101.461338875815272">
        <ele>69.8328857421875</ele>
        <time>2012-11-24T08:22:59Z</time>
      </trkpt>
      <trkpt lat="12.956746844574809" lon="101.461554374545813">
        <ele>67.4296875</ele>
        <time>2012-11-24T08:23:18Z</time>
      </trkpt>
      <trkpt lat="12.95786440372467" lon="101.462469678372145">
        <ele>68.390869140625</ele>
        <time>2012-11-24T08:23:43Z</time>
      </trkpt>
      <trkpt lat="12.95848349109292" lon="101.460798159241676">
        <ele>66.46826171875</ele>
        <time>2012-11-24T08:24:51Z</time>
      </trkpt>
      <trkpt lat="12.95934003777802" lon="101.461105858907104">
        <ele>65.9876708984375</ele>
        <time>2012-11-24T08:25:17Z</time>
      </trkpt>
      <trkpt lat="12.959414720535278" lon="101.460971748456359">
        <ele>66.948974609375</ele>
        <time>2012-11-24T08:25:23Z</time>
      </trkpt>
      <trkpt lat="12.959835324436426" lon="101.459521679207683">
        <ele>68.87158203125</ele>
        <time>2012-11-24T08:25:58Z</time>
      </trkpt>
      <trkpt lat="12.959959879517555" lon="101.457892404869199">
        <ele>68.87158203125</ele>
        <time>2012-11-24T08:26:35Z</time>
      </trkpt>
      <trkpt lat="12.960126930847764" lon="101.457599205896258">
        <ele>69.352294921875</ele>
        <time>2012-11-24T08:26:52Z</time>
      </trkpt>
      <trkpt lat="12.961099063977599" lon="101.457843789830804">
        <ele>74.1588134765625</ele>
        <time>2012-11-24T08:27:38Z</time>
      </trkpt>
      <trkpt lat="12.962992871180177" lon="101.458236146718264">
        <ele>77.0428466796875</ele>
        <time>2012-11-24T08:28:34Z</time>
      </trkpt>
      <trkpt lat="12.96302430331707" lon="101.458245115354657">
        <ele>77.0428466796875</ele>
        <time>2012-11-24T08:28:35Z</time>
      </trkpt>
      <trkpt lat="12.962929336354136" lon="101.459528552368283">
        <ele>72.7169189453125</ele>
        <time>2012-11-24T08:29:14Z</time>
      </trkpt>
      <trkpt lat="12.963864170014858" lon="101.459753355011344">
        <ele>71.27490234375</ele>
        <time>2012-11-24T08:29:42Z</time>
      </trkpt>
      <trkpt lat="12.964065419510007" lon="101.460011182352901">
        <ele>70.3134765625</ele>
        <time>2012-11-24T08:29:55Z</time>
      </trkpt>
      <trkpt lat="12.963761743158102" lon="101.461300235241652">
        <ele>81.849365234375</ele>
        <time>2012-11-24T08:30:40Z</time>
      </trkpt>
      <trkpt lat="12.963132597506046" lon="101.463207202032208">
        <ele>84.7333984375</ele>
        <time>2012-11-24T08:31:28Z</time>
      </trkpt>
      <trkpt lat="12.962878542020917" lon="101.464147651568055">
        <ele>82.330078125</ele>
        <time>2012-11-24T08:31:48Z</time>
      </trkpt>
      <trkpt lat="12.962658517062664" lon="101.465550530701876">
        <ele>79.9266357421875</ele>
        <time>2012-11-24T08:32:17Z</time>
      </trkpt>
      <trkpt lat="12.962825819849968" lon="101.466798763722181">
        <ele>74.6395263671875</ele>
        <time>2012-11-24T08:32:48Z</time>
      </trkpt>
      <trkpt lat="12.962655164301395" lon="101.467194557189941">
        <ele>70.794189453125</ele>
        <time>2012-11-24T08:33:00Z</time>
      </trkpt>
      <trkpt lat="12.962679388001561" lon="101.46760736592114">
        <ele>69.352294921875</ele>
        <time>2012-11-24T08:33:13Z</time>
      </trkpt>
      <trkpt lat="12.962597161531448" lon="101.467116689309478">
        <ele>65.9876708984375</ele>
        <time>2012-11-24T08:33:40Z</time>
      </trkpt>
      <trkpt lat="12.962248139083385" lon="101.467609377577901">
        <ele>64.545654296875</ele>
        <time>2012-11-24T08:33:58Z</time>
      </trkpt>
      <trkpt lat="12.962437067180872" lon="101.468590227887034">
        <ele>66.948974609375</ele>
        <time>2012-11-24T08:34:27Z</time>
      </trkpt>
      <trkpt lat="12.962344698607922" lon="101.468683015555143">
        <ele>66.948974609375</ele>
        <time>2012-11-24T08:34:40Z</time>
      </trkpt>
      <trkpt lat="12.962042866274714" lon="101.468751495704055">
        <ele>64.545654296875</ele>
        <time>2012-11-24T08:34:50Z</time>
      </trkpt>
      <trkpt lat="12.96213548630476" lon="101.473081922158599">
        <ele>62.6229248046875</ele>
        <time>2012-11-24T08:36:40Z</time>
      </trkpt>
      <trkpt lat="12.962176306173205" lon="101.475316872820258">
        <ele>58.297119140625</ele>
        <time>2012-11-24T08:37:40Z</time>
      </trkpt>
      <trkpt lat="12.962328521534801" lon="101.475517032667994">
        <ele>55.893798828125</ele>
        <time>2012-11-24T08:37:55Z</time>
      </trkpt>
      <trkpt lat="12.962340172380209" lon="101.476013325154781">
        <ele>53.490478515625</ele>
        <time>2012-11-24T08:38:10Z</time>
      </trkpt>
      <trkpt lat="12.962820455431938" lon="101.476880433037877">
        <ele>53.009765625</ele>
        <time>2012-11-24T08:38:32Z</time>
      </trkpt>
      <trkpt lat="12.96370449475944" lon="101.477180672809482">
        <ele>55.4130859375</ele>
        <time>2012-11-24T08:38:58Z</time>
      </trkpt>
      <trkpt lat="12.965722354128957" lon="101.477086627855897">
        <ele>52.5291748046875</ele>
        <time>2012-11-24T08:40:31Z</time>
      </trkpt>
      <trkpt lat="12.965989904478192" lon="101.477018315345049">
        <ele>55.4130859375</ele>
        <time>2012-11-24T08:40:45Z</time>
      </trkpt>
      <trkpt lat="12.966454597190022" lon="101.476873978972435">
        <ele>55.893798828125</ele>
        <time>2012-11-24T08:41:07Z</time>
      </trkpt>
      <trkpt lat="12.966734049841762" lon="101.476581702008843">
        <ele>57.3358154296875</ele>
        <time>2012-11-24T08:41:28Z</time>
      </trkpt>
      <trkpt lat="12.966737654060125" lon="101.475923722609878">
        <ele>58.7777099609375</ele>
        <time>2012-11-24T08:42:02Z</time>
      </trkpt>
      <trkpt lat="12.968725338578224" lon="101.475609485059977">
        <ele>52.5291748046875</ele>
        <time>2012-11-24T08:43:04Z</time>
      </trkpt>
      <trkpt lat="12.969206878915429" lon="101.476814048364758">
        <ele>55.893798828125</ele>
        <time>2012-11-24T08:43:53Z</time>
      </trkpt>
      <trkpt lat="12.969093723222613" lon="101.478305272758007">
        <ele>59.2584228515625</ele>
        <time>2012-11-24T08:44:32Z</time>
      </trkpt>
      <trkpt lat="12.969043347984552" lon="101.478567123413086">
        <ele>56.8551025390625</ele>
        <time>2012-11-24T08:44:39Z</time>
      </trkpt>
      <trkpt lat="12.969041503965855" lon="101.478610709309578">
        <ele>51.087158203125</ele>
        <time>2012-11-24T08:44:52Z</time>
      </trkpt>
      <trkpt lat="12.969160359352827" lon="101.478750351816416">
        <ele>50.6065673828125</ele>
        <time>2012-11-24T08:45:23Z</time>
      </trkpt>
      <trkpt lat="12.970969341695309" lon="101.479436242952943">
        <ele>44.838623046875</ele>
        <time>2012-11-24T08:46:13Z</time>
      </trkpt>
      <trkpt lat="12.972961468622088" lon="101.48043435998261">
        <ele>44.838623046875</ele>
        <time>2012-11-24T08:47:18Z</time>
      </trkpt>
      <trkpt lat="12.973828073590994" lon="101.479954160749912">
        <ele>46.76123046875</ele>
        <time>2012-11-24T08:47:44Z</time>
      </trkpt>
      <trkpt lat="12.974596610292792" lon="101.479727514088154">
        <ele>44.838623046875</ele>
        <time>2012-11-24T08:48:02Z</time>
      </trkpt>
      <trkpt lat="12.975580310449004" lon="101.478567626327276">
        <ele>45.3192138671875</ele>
        <time>2012-11-24T08:48:34Z</time>
      </trkpt>
      <trkpt lat="12.976084481924772" lon="101.478320863097906">
        <ele>46.76123046875</ele>
        <time>2012-11-24T08:48:49Z</time>
      </trkpt>
      <trkpt lat="12.977639492601156" lon="101.477789618074894">
        <ele>47.7225341796875</ele>
        <time>2012-11-24T08:49:34Z</time>
      </trkpt>
      <trkpt lat="12.97852604649961" lon="101.477634385228157">
        <ele>48.203369140625</ele>
        <time>2012-11-24T08:49:52Z</time>
      </trkpt>
      <trkpt lat="12.979465322569013" lon="101.477404972538352">
        <ele>47.2418212890625</ele>
        <time>2012-11-24T08:50:11Z</time>
      </trkpt>
      <trkpt lat="12.980225728824735" lon="101.476778341457248">
        <ele>43.8773193359375</ele>
        <time>2012-11-24T08:50:28Z</time>
      </trkpt>
      <trkpt lat="12.980696205049753" lon="101.476185154169798">
        <ele>42.916015625</ele>
        <time>2012-11-24T08:50:43Z</time>
      </trkpt>
      <trkpt lat="12.981790462508798" lon="101.474351193755865">
        <ele>45.7999267578125</ele>
        <time>2012-11-24T08:51:28Z</time>
      </trkpt>
      <trkpt lat="12.98231391236186" lon="101.473559271544218">
        <ele>43.3966064453125</ele>
        <time>2012-11-24T08:51:46Z</time>
      </trkpt>
      <trkpt lat="12.982672154903412" lon="101.47321879863739">
        <ele>43.3966064453125</ele>
        <time>2012-11-24T08:51:58Z</time>
      </trkpt>
      <trkpt lat="12.985339360311627" lon="101.472087325528264">
        <ele>55.4130859375</ele>
        <time>2012-11-24T08:53:23Z</time>
      </trkpt>
      <trkpt lat="12.987653184682131" lon="101.471088454127312">
        <ele>54.4517822265625</ele>
        <time>2012-11-24T08:54:09Z</time>
      </trkpt>
      <trkpt lat="12.990542678162456" lon="101.470062592998147">
        <ele>53.009765625</ele>
        <time>2012-11-24T08:55:04Z</time>
      </trkpt>
      <trkpt lat="12.997473506256938" lon="101.469712313264608">
        <ele>45.3192138671875</ele>
        <time>2012-11-24T08:57:16Z</time>
      </trkpt>
      <trkpt lat="12.998168198391795" lon="101.469740141183138">
        <ele>42.4354248046875</ele>
        <time>2012-11-24T08:57:27Z</time>
      </trkpt>
      <trkpt lat="12.999142594635487" lon="101.469381060451269">
        <ele>42.4354248046875</ele>
        <time>2012-11-24T08:57:44Z</time>
      </trkpt>
      <trkpt lat="12.999289948493242" lon="101.469137566164136">
        <ele>42.916015625</ele>
        <time>2012-11-24T08:57:51Z</time>
      </trkpt>
      <trkpt lat="12.998600034043193" lon="101.463412307202816">
        <ele>50.1259765625</ele>
        <time>2012-11-24T09:00:06Z</time>
      </trkpt>
      <trkpt lat="12.998289652168751" lon="101.461077192798257">
        <ele>51.087158203125</ele>
        <time>2012-11-24T09:00:56Z</time>
      </trkpt>
      <trkpt lat="12.997651286423206" lon="101.460161469876766">
        <ele>50.1259765625</ele>
        <time>2012-11-24T09:01:27Z</time>
      </trkpt>
      <trkpt lat="12.996926167979836" lon="101.456069089472294">
        <ele>47.2418212890625</ele>
        <time>2012-11-24T09:03:03Z</time>
      </trkpt>
      <trkpt lat="12.997358925640583" lon="101.456015361472964">
        <ele>50.6065673828125</ele>
        <time>2012-11-24T09:03:15Z</time>
      </trkpt>
      <trkpt lat="12.998395096510649" lon="101.455946210771799">
        <ele>52.048583984375</ele>
        <time>2012-11-24T09:03:38Z</time>
      </trkpt>
      <trkpt lat="12.997996117919683" lon="101.455143727362156">
        <ele>54.932373046875</ele>
        <time>2012-11-24T09:04:09Z</time>
      </trkpt>
      <trkpt lat="12.997691016644239" lon="101.454990757629275">
        <ele>56.8551025390625</ele>
        <time>2012-11-24T09:04:23Z</time>
      </trkpt>
      <trkpt lat="12.997343502938747" lon="101.453341031447053">
        <ele>54.932373046875</ele>
        <time>2012-11-24T09:05:25Z</time>
      </trkpt>
      <trkpt lat="12.997622201219201" lon="101.454819682985544">
        <ele>56.37451171875</ele>
        <time>2012-11-24T09:06:23Z</time>
      </trkpt>
      <trkpt lat="12.997906431555748" lon="101.45456344820559">
        <ele>58.297119140625</ele>
        <time>2012-11-24T09:06:44Z</time>
      </trkpt>
      <trkpt lat="12.999309478327632" lon="101.454476108774543">
        <ele>57.8165283203125</ele>
        <time>2012-11-24T09:07:28Z</time>
      </trkpt>
      <trkpt lat="12.999616591259837" lon="101.454261029139161">
        <ele>58.297119140625</ele>
        <time>2012-11-24T09:07:42Z</time>
      </trkpt>
      <trkpt lat="13.000730127096176" lon="101.45447694696486">
        <ele>58.297119140625</ele>
        <time>2012-11-24T09:08:07Z</time>
      </trkpt>
      <trkpt lat="13.001059452071786" lon="101.45453067496419">
        <ele>56.8551025390625</ele>
        <time>2012-11-24T09:08:15Z</time>
      </trkpt>
      <trkpt lat="13.000736329704523" lon="101.45404402166605">
        <ele>55.4130859375</ele>
        <time>2012-11-24T09:08:35Z</time>
      </trkpt>
      <trkpt lat="13.00057053565979" lon="101.453452846035361">
        <ele>54.932373046875</ele>
        <time>2012-11-24T09:08:52Z</time>
      </trkpt>
      <trkpt lat="13.000202402472496" lon="101.45331546664238">
        <ele>57.8165283203125</ele>
        <time>2012-11-24T09:09:20Z</time>
      </trkpt>
      <trkpt lat="13.000094443559647" lon="101.453300295397639">
        <ele>57.3358154296875</ele>
        <time>2012-11-24T09:09:29Z</time>
      </trkpt>
      <trkpt lat="13.000558549538255" lon="101.451445380225778">
        <ele>66.46826171875</ele>
        <time>2012-11-24T09:12:39Z</time>
      </trkpt>
      <trkpt lat="13.003277638927102" lon="101.451866738498211">
        <ele>58.7777099609375</ele>
        <time>2012-11-24T09:13:44Z</time>
      </trkpt>
      <trkpt lat="13.002224452793598" lon="101.444781515747309">
        <ele>73.67822265625</ele>
        <time>2012-11-24T09:17:28Z</time>
      </trkpt>
      <trkpt lat="13.002151027321815" lon="101.441262289881706">
        <ele>72.2362060546875</ele>
        <time>2012-11-24T09:19:40Z</time>
      </trkpt>
      <trkpt lat="13.002852676436305" lon="101.440304154530168">
        <ele>73.67822265625</ele>
        <time>2012-11-24T09:20:56Z</time>
      </trkpt>
      <trkpt lat="13.003013525158167" lon="101.440584948286414">
        <ele>75.1202392578125</ele>
        <time>2012-11-24T09:21:19Z</time>
      </trkpt>
      <trkpt lat="13.00408816896379" lon="101.441080821678042">
        <ele>75.600830078125</ele>
        <time>2012-11-24T09:22:51Z</time>
      </trkpt>
      <trkpt lat="13.0043207667768" lon="101.440998679026961">
        <ele>73.1976318359375</ele>
        <time>2012-11-24T09:23:42Z</time>
      </trkpt>
      <trkpt lat="13.004550011828542" lon="101.440583355724812">
        <ele>72.2362060546875</ele>
        <time>2012-11-24T09:24:10Z</time>
      </trkpt>
      <trkpt lat="13.004637937992811" lon="101.440243721008301">
        <ele>70.3134765625</ele>
        <time>2012-11-24T09:24:24Z</time>
      </trkpt>
      <trkpt lat="13.004489997401834" lon="101.440032664686441">
        <ele>69.8328857421875</ele>
        <time>2012-11-24T09:24:35Z</time>
      </trkpt>
      <trkpt lat="13.004688732326031" lon="101.439443584531546">
        <ele>68.87158203125</ele>
        <time>2012-11-24T09:24:55Z</time>
      </trkpt>
      <trkpt lat="13.008147859945893" lon="101.438059229403734">
        <ele>64.545654296875</ele>
        <time>2012-11-24T09:26:18Z</time>
      </trkpt>
      <trkpt lat="13.008118690922856" lon="101.43753033131361">
        <ele>63.5843505859375</ele>
        <time>2012-11-24T09:26:35Z</time>
      </trkpt>
      <trkpt lat="13.00823469646275" lon="101.437426060438156">
        <ele>63.1036376953125</ele>
        <time>2012-11-24T09:26:39Z</time>
      </trkpt>
      <trkpt lat="13.010148955509067" lon="101.436768332496285">
        <ele>62.142333984375</ele>
        <time>2012-11-24T09:27:21Z</time>
      </trkpt>
      <trkpt lat="13.011442869901657" lon="101.436230968683958">
        <ele>57.3358154296875</ele>
        <time>2012-11-24T09:27:49Z</time>
      </trkpt>
      <trkpt lat="13.012418104335666" lon="101.43559830263257">
        <ele>54.932373046875</ele>
        <time>2012-11-24T09:28:16Z</time>
      </trkpt>
      <trkpt lat="13.012496810406446" lon="101.435438795015216">
        <ele>55.4130859375</ele>
        <time>2012-11-24T09:28:20Z</time>
      </trkpt>
      <trkpt lat="13.012923449277878" lon="101.435506688430905">
        <ele>56.37451171875</ele>
        <time>2012-11-24T09:28:30Z</time>
      </trkpt>
      <trkpt lat="13.014247538521886" lon="101.435320610180497">
        <ele>68.87158203125</ele>
        <time>2012-11-24T09:29:16Z</time>
      </trkpt>
      <trkpt lat="13.014863440766931" lon="101.435430999845266">
        <ele>71.27490234375</ele>
        <time>2012-11-24T09:29:32Z</time>
      </trkpt>
      <trkpt lat="13.01543265581131" lon="101.433379948139191">
        <ele>76.5621337890625</ele>
        <time>2012-11-24T09:30:50Z</time>
      </trkpt>
      <trkpt lat="13.015679838135839" lon="101.433410458266735">
        <ele>73.1976318359375</ele>
        <time>2012-11-24T09:31:02Z</time>
      </trkpt>
      <trkpt lat="13.016649791970849" lon="101.434508236125112">
        <ele>81.3687744140625</ele>
        <time>2012-11-24T09:31:37Z</time>
      </trkpt>
      <trkpt lat="13.018969567492604" lon="101.436906466260552">
        <ele>59.2584228515625</ele>
        <time>2012-11-24T09:32:42Z</time>
      </trkpt>
      <trkpt lat="13.01984203979373" lon="101.43472658470273">
        <ele>64.545654296875</ele>
        <time>2012-11-24T09:33:52Z</time>
      </trkpt>
      <trkpt lat="13.021080633625388" lon="101.432768572121859">
        <ele>68.390869140625</ele>
        <time>2012-11-24T09:34:52Z</time>
      </trkpt>
      <trkpt lat="13.021702906116843" lon="101.432007076218724">
        <ele>72.2362060546875</ele>
        <time>2012-11-24T09:35:25Z</time>
      </trkpt>
      <trkpt lat="13.022847957909107" lon="101.430689943954349">
        <ele>70.794189453125</ele>
        <time>2012-11-24T09:36:03Z</time>
      </trkpt>
      <trkpt lat="13.023566203191876" lon="101.43014713190496">
        <ele>69.352294921875</ele>
        <time>2012-11-24T09:36:22Z</time>
      </trkpt>
      <trkpt lat="13.024898674339056" lon="101.429529804736376">
        <ele>79.9266357421875</ele>
        <time>2012-11-24T09:37:16Z</time>
      </trkpt>
      <trkpt lat="13.025702498853207" lon="101.429213136434555">
        <ele>76.5621337890625</ele>
        <time>2012-11-24T09:37:32Z</time>
      </trkpt>
      <trkpt lat="13.026331476867199" lon="101.427680589258671">
        <ele>73.1976318359375</ele>
        <time>2012-11-24T09:38:11Z</time>
      </trkpt>
      <trkpt lat="13.026396101340652" lon="101.426957817748189">
        <ele>73.1976318359375</ele>
        <time>2012-11-24T09:38:32Z</time>
      </trkpt>
      <trkpt lat="13.026070296764374" lon="101.425106758251786">
        <ele>79.446044921875</ele>
        <time>2012-11-24T09:39:37Z</time>
      </trkpt>
      <trkpt lat="13.025641227141023" lon="101.424681041389704">
        <ele>83.77197265625</ele>
        <time>2012-11-24T09:40:10Z</time>
      </trkpt>
      <trkpt lat="13.02558833733201" lon="101.424459591507912">
        <ele>83.77197265625</ele>
        <time>2012-11-24T09:40:26Z</time>
      </trkpt>
      <trkpt lat="13.026240030303597" lon="101.42401778139174">
        <ele>87.6171875</ele>
        <time>2012-11-24T09:41:13Z</time>
      </trkpt>
      <trkpt lat="13.026240030303597" lon="101.424005208536983">
        <ele>84.7333984375</ele>
        <time>2012-11-24T09:41:16Z</time>
      </trkpt>
    </trkseg>
  </trk>

</gpx>
